Latest Weather Observations for Cape Moreton

IDQ60801

Issued at 11:32 pm EST Friday 26 August 2016 (issued every 30 minutes, with the page automatically refreshed every 10 minutes)

About weather observations | Map of weather stations | Latest weather observations for QLD | Other Formats
Station Details ID: 040043 Name: CAPE MORETON LIGHTHOUSE Lat: -27.03 Lon: 153.47 Height: 99.9 m
Data from the previous 72 hours. | See also: Recent months at Cape Moreton
Date/Time
EST
Temp
°C
App
Temp
°C
Dew
Point
°C
Rel
Hum
%
Delta-T
°C
Wind Press
QNH
hPa
Press
MSL
hPa
Rain since
9am
mm
Dir  Spd
km/h
Gust
km/h
Spd
kts
Gust
kts
26/11:00pm 13.4 6.8 4.0 53 4.3 WSW 28 39 15 21 1016.8 1016.6 0.0
26/10:30pm 13.9 7.6 3.9 51 4.6 SW 26 39 14 21 1016.8 1016.6 0.0
26/10:00pm 14.0 8.1 3.8 50 4.7 SW 24 35 13 19 1016.9 1016.7 0.0
26/09:30pm 14.3 8.3 3.5 48 4.9 WSW 24 35 13 19 1016.8 1016.6 0.0
26/09:00pm 14.7 8.7 3.5 47 5.1 WSW 24 35 13 19 1016.8 1016.6 0.0
26/08:38pm 15.5 8.8 3.9 46 5.4 WSW 28 46 15 25 1016.5 1016.3 0.0
26/08:30pm 15.3 9.4 4.1 47 5.2 WSW 24 37 13 20 1016.6 1016.4 0.0
26/08:00pm 15.6 13.8 9.5 67 3.2 SW 9 9 5 5 1016.7 1016.5 0.0
26/07:30pm 16.0 15.5 7.7 58 4.2 CALM 0 0 0 0 1016.3 1016.1 0.0
26/07:00pm 15.7 14.9 8.2 61 3.8 SE 2 7 1 4 1016.0 1015.8 0.0
26/06:30pm 16.0 15.4 7.5 57 4.3 CALM 0 0 0 0 1015.7 1015.5 0.0
26/06:00pm 15.8 14.7 6.8 55 4.4 SE 2 6 1 3 1015.3 1015.1 0.0
26/05:30pm 15.9 13.5 6.9 55 4.5 WSW 9 11 5 6 1015.3 1015.1 0.0
26/05:00pm 16.4 14.2 7.9 57 4.3 SW 9 11 5 6 1015.0 1014.8 0.0
26/04:30pm 17.3 16.8 7.9 54 4.8 CALM 0 0 0 0 1014.8 1014.6 0.0
26/04:00pm 17.5 15.2 7.5 52 5.1 SE 9 13 5 7 1014.6 1014.4 0.0
26/03:30pm 17.6 15.0 7.9 53 5.0 SE 11 15 6 8 1014.3 1014.1 0.0
26/03:00pm 17.4 15.7 8.5 56 4.6 E 7 9 4 5 1014.4 1014.2 0.0
26/02:30pm 17.2 14.6 7.8 54 4.8 SE 11 17 6 9 1014.4 1014.2 0.0
26/02:00pm 18.7 16.4 8.9 53 5.1 SE 11 15 6 8 1014.5 1014.3 0.0
26/01:30pm 18.5 15.8 9.0 54 5.0 SE 13 17 7 9 1014.8 1014.6 0.0
26/01:00pm 18.9 15.5 7.7 48 5.7 SE 15 19 8 10 1014.9 1014.7 0.0
26/12:30pm 18.1 14.8 6.6 47 5.7 SE 13 20 7 11 1015.4 1015.2 0.0
26/12:00pm 18.1 15.6 6.6 47 5.7 S 9 15 5 8 1015.6 1015.4 0.0
26/11:30am 19.5 17.5 8.5 49 5.7 SSE 9 15 5 8 1016.0 1015.8 0.0
26/11:00am 18.4 15.7 7.2 48 5.7 SSE 11 17 6 9 1016.3 1016.1 0.0
26/10:30am 17.4 13.9 7.2 51 5.1 SW 15 22 8 12 1016.5 1016.3 0.0
26/10:00am 15.9 11.4 7.1 56 4.4 SW 20 30 11 16 1016.8 1016.6 0.0
26/09:30am 15.6 10.6 6.6 55 4.4 SW 22 30 12 16 1017.0 1016.8 0.0
26/09:00am 14.9 10.0 7.0 59 3.9 WSW 22 32 12 17 1017.3 1017.1 0.2
26/08:30am 14.7 10.2 7.0 60 3.8 SW 20 30 11 16 1017.5 1017.3 0.2
26/08:00am 14.0 9.6 7.3 64 3.3 SW 20 32 11 17 1017.2 1017.0 0.2
26/07:30am 13.1 8.2 7.1 67 2.9 SW 22 32 12 17 1017.0 1016.8 0.2
26/07:00am 12.2 6.9 6.7 69 2.6 SW 24 32 13 17 1016.7 1016.5 0.2
26/06:30am 11.7 5.9 6.2 69 2.6 SW 26 35 14 19 1016.2 1016.0 0.2
26/06:00am 11.7 5.5 6.0 68 2.7 SW 28 37 15 20 1015.9 1015.7 0.2
26/05:30am 11.8 5.6 6.3 69 2.6 SW 28 35 15 19 1015.5 1015.3 0.2
26/05:00am 11.8 6.1 6.5 70 2.5 SW 26 37 14 20 1015.3 1015.1 0.2
26/04:30am 11.7 6.7 6.6 71 2.4 SW 22 30 12 16 1015.3 1015.1 0.2
26/04:00am 11.9 6.1 6.4 69 2.6 SW 26 33 14 18 1015.0 1014.8 0.2
26/03:30am 12.0 6.7 6.7 70 2.5 SW 24 35 13 19 1014.7 1014.5 0.2
26/03:00am 12.1 6.4 6.6 69 2.6 SW 26 39 14 21 1014.6 1014.4 0.2
26/02:30am 12.1 6.8 6.6 69 2.6 SW 24 39 13 21 1014.7 1014.5 0.2
26/02:00am 12.5 6.4 6.5 67 2.9 SW 28 41 15 22 1014.5 1014.3 0.2
26/01:30am 12.5 6.8 6.5 67 2.9 SW 26 35 14 19 1014.6 1014.4 0.2
26/01:00am 12.5 7.1 6.5 67 2.9 SW 24 33 13 18 1014.8 1014.6 0.2
26/12:30am 12.7 7.3 6.3 65 3.1 SW 24 35 13 19 1015.0 1014.8 0.2
26/12:00am 13.2 7.4 6.1 62 3.4 SW 26 37 14 20 1015.0 1014.8 0.2
 
Date/Time
EST
Temp
°C
App
Temp
°C
Dew
Point
°C
Rel
Hum
%
Delta-T
°C
Wind Press
QNH
hPa
Press
MSL
hPa
Rain since
9am
mm
Dir  Spd
km/h
Gust
km/h
Spd
kts
Gust
kts
25/11:30pm 13.3 7.9 6.2 62 3.4 SW 24 35 13 19 1015.2 1015.0 0.2
25/11:00pm 13.5 8.8 6.1 61 3.5 SW 20 32 11 17 1015.4 1015.2 0.2
25/10:30pm 13.8 8.3 5.9 59 3.8 SW 24 35 13 19 1015.4 1015.2 0.2
25/10:00pm 13.9 9.2 6.0 59 3.8 WSW 20 33 11 18 1015.5 1015.3 0.2
25/09:30pm 14.4 8.1 5.7 56 4.2 SW 28 39 15 21 1015.3 1015.1 0.2
25/09:00pm 14.4 8.9 5.7 56 4.1 SW 24 35 13 19 1015.2 1015.0 0.2
25/08:30pm 14.5 9.0 5.8 56 4.2 SW 24 37 13 20 1015.2 1015.0 0.2
25/08:00pm 15.0 8.7 5.8 54 4.4 SW 28 39 15 21 1014.9 1014.7 0.2
25/07:30pm 15.4 9.5 5.6 52 4.7 SW 26 41 14 22 1014.6 1014.4 0.2
25/07:00pm 15.7 9.8 5.9 52 4.7 SW 26 39 14 21 1014.2 1014.0 0.2
25/06:30pm 15.8 9.9 6.0 52 4.8 SW 26 35 14 19 1013.5 1013.3 0.2
25/06:00pm 15.6 10.5 6.1 53 4.6 SW 22 30 12 16 1013.1 1012.9 0.2
25/05:30pm 16.2 11.1 6.1 51 4.9 SW 22 32 12 17 1012.4 1012.3 0.2
25/05:00pm 17.3 12.2 5.9 47 5.6 SW 22 30 12 16 1012.0 1011.9 0.2
25/04:30pm 18.5 14.2 7.0 47 5.8 SW 19 26 10 14 1011.7 1011.6 0.2
25/04:00pm 18.8 14.2 6.6 45 6.1 WSW 20 32 11 17 1011.4 1011.3 0.2
25/03:30pm 19.1 14.3 7.5 47 5.9 WSW 22 35 12 19 1011.1 1011.0 0.2
25/03:00pm 18.9 14.1 7.4 47 5.9 WSW 22 35 12 19 1010.8 1010.6 0.2
25/02:30pm 18.9 14.5 6.7 45 6.1 WSW 19 28 10 15 1010.7 1010.5 0.2
25/02:00pm 18.6 13.4 7.4 48 5.7 W 24 35 13 19 1010.6 1010.4 0.2
25/01:30pm 18.5 13.5 6.4 45 6.0 WSW 22 35 12 19 1011.0 1010.9 0.2
25/01:00pm 19.1 14.6 8.7 51 5.4 WSW 22 33 12 18 1010.9 1010.7 0.2
25/12:30pm 18.4 13.2 7.2 48 5.7 W 24 43 13 23 1011.0 1010.9 0.2
25/12:00pm 18.0 13.4 8.3 53 5.0 W 22 32 12 17 1011.2 1011.1 0.2
25/11:30am 17.8 12.4 7.8 52 5.1 WSW 26 44 14 24 1010.9 1010.7 0.2
25/11:00am 17.4 12.4 8.0 54 4.8 WSW 24 39 13 21 1011.0 1010.9 0.2
25/10:30am 16.6 11.7 8.3 58 4.2 W 24 37 13 20 1011.2 1011.1 0.0
25/10:00am 15.4 10.4 7.9 61 3.8 WSW 24 35 13 19 1011.4 1011.3 0.0
25/09:30am 16.0 10.0 8.7 62 3.7 W 30 48 16 26 1011.6 1011.5 0.0
25/09:29am 16.1 10.6 9.1 63 3.6 W 28 48 15 26 1011.6 1011.5 0.0
25/09:00am 15.0 9.3 8.3 64 3.4 WSW 28 43 15 23 1011.9 1011.8 4.6
25/08:30am 15.0 8.4 8.5 65 3.3 W 33 50 18 27 1011.2 1011.1 4.6
25/08:26am 15.1 9.1 8.8 66 3.2 W 30 50 16 27 1011.4 1011.3 4.6
25/08:00am 15.3 10.6 9.4 68 3.1 WSW 24 43 13 23 1011.1 1011.0 4.6
25/07:30am 15.0 10.4 9.6 70 2.8 WSW 24 35 13 19 1011.3 1011.2 4.6
25/07:00am 15.1 11.1 10.3 73 2.5 WSW 22 35 12 19 1010.6 1010.4 4.6
25/06:30am 15.2 10.9 10.6 74 2.4 WSW 24 37 13 20 1010.8 1010.6 4.6
25/06:00am 15.7 11.2 10.2 70 2.9 WSW 24 39 13 21 1010.0 1009.8 4.6
25/05:30am 16.1 11.8 10.6 70 2.9 WSW 24 39 13 21 1010.0 1009.8 4.6
25/05:00am 16.7 11.8 11.2 70 3.0 WSW 28 44 15 24 1009.0 1008.8 4.6
25/04:46am 16.8 11.9 11.3 70 3.0 WSW 28 48 15 26 1009.8 1009.6 4.6
25/04:30am 16.8 11.8 11.1 69 3.1 WSW 28 43 15 23 1008.6 1008.4 4.6
25/04:00am 17.2 13.2 11.9 71 2.9 WSW 24 35 13 19 1008.4 1008.2 4.6
25/03:30am 18.0 14.4 14.3 79 2.1 WSW 26 46 14 25 1007.8 1007.6 4.6
25/03:16am 18.4 13.6 14.5 78 2.3 W 33 52 18 28 1008.7 1008.5 4.6
25/03:00am 18.6 14.1 14.9 79 2.2 W 32 46 17 25 1008.3 1008.1 4.6
25/02:40am 18.9 14.5 15.2 79 2.2 W 32 52 17 28 1008.5 1008.3 4.6
25/02:30am 19.1 14.7 15.6 80 2.1 W 33 48 18 26 1008.5 1008.3 4.6
25/02:00am 19.1 16.1 15.8 81 2.0 WNW 26 37 14 20 1006.8 1006.6 4.6
25/01:30am 19.0 16.8 17.0 88 1.2 WNW 24 32 13 17 1007.7 1007.5 4.6
25/01:00am 18.8 17.1 18.1 96 0.4 WNW 24 33 13 18 1008.0 1007.8 4.6
25/12:30am 18.7 17.2 18.5 99 0.1 WNW 24 35 13 19 1008.2 1008.0 4.6
25/12:00am 18.8 16.9 18.6 99 0.1 WNW 26 35 14 19 1008.4 1008.2 4.6
 
Date/Time
EST
Temp
°C
App
Temp
°C
Dew
Point
°C
Rel
Hum
%
Delta-T
°C
Wind Press
QNH
hPa
Press
MSL
hPa
Rain since
9am
mm
Dir  Spd
km/h
Gust
km/h
Spd
kts
Gust
kts
24/11:30pm 18.9 17.5 18.7 99 0.1 NW 24 33 13 18 1008.0 1007.8 4.6
24/11:00pm 18.7 16.8 18.5 99 0.1 NNW 26 35 14 19 1007.6 1007.4 4.6
24/10:30pm 18.6 17.8 18.4 99 0.1 NW 20 28 11 15 1007.7 1007.5 4.6
24/10:00pm 18.3 17.0 18.1 99 0.1 NW 22 32 12 17 1008.3 1008.1 4.6
24/09:30pm 18.2 17.2 17.9 98 0.2 NW 20 24 11 13 1008.4 1008.2 4.6
24/09:00pm 18.0 17.3 17.4 96 0.4 N 17 22 9 12 1007.9 1007.7 4.6
24/08:30pm 17.7 16.9 17.2 97 0.3 NNE 17 20 9 11 1007.9 1007.7 4.6
24/08:00pm 17.6 16.9 17.4 99 0.1 ENE 17 19 9 10 1007.6 1007.4 4.6
24/07:30pm 17.4 17.0 17.2 99 0.1 E 15 17 8 9 1008.1 1007.9 4.6
24/07:00pm 17.1 16.6 16.8 98 0.2 ESE 15 19 8 10 1008.3 1008.1 4.6
24/06:30pm 16.9 15.8 16.4 97 0.3 SE 17 20 9 11 1008.8 1008.6 4.6
24/06:00pm 16.8 15.4 16.6 99 0.1 SSE 19 24 10 13 1009.0 1008.8 4.6
24/05:30pm 16.7 14.0 16.5 99 0.1 SSE 26 35 14 19 1008.3 1008.1 4.6
24/05:00pm 16.3 12.6 16.1 99 0.1 S 30 39 16 21 1007.5 1007.3 4.6
24/04:30pm 16.5 13.7 16.3 99 0.1 S 26 35 14 19 1007.7 1007.5 4.6
24/04:00pm 16.5 12.5 16.3 99 0.1 S 32 43 17 23 1007.1 1006.9 4.6
24/03:30pm 16.5 13.4 16.5 100 0.0 S 28 35 15 19 1006.9 1006.7 4.6
24/03:00pm 16.6 12.8 16.6 100 0.0 S 32 43 17 23 1006.6 1006.4 4.6
24/02:30pm 18.4 15.1 18.4 100 0.0 WSW 33 46 18 25 1006.1 1005.9 4.4
24/02:11pm 18.3 14.5 18.1 99 0.1 WSW 35 56 19 30 1005.9 1005.7 3.0
24/02:00pm 18.0 14.5 17.8 99 0.1 W 33 48 18 26 1006.1 1005.9 2.2
24/01:30pm 21.1 20.7 20.9 99 0.1 NNW 24 37 13 20 1005.1 1004.9 0.0
24/01:00pm 21.5 20.9 21.3 99 0.1 NNW 26 37 14 20 1005.1 1004.9 0.0
24/12:30pm 21.3 19.9 21.1 99 0.1 N 30 37 16 20 1005.6 1005.4 0.0
24/12:00pm 21.2 19.1 21.0 99 0.1 N 33 46 18 25 1006.1 1005.9 0.0
24/11:30am 21.2 18.7 20.9 98 0.2 N 35 44 19 24 1006.6 1006.4 0.0
24/11:00am 21.1 19.6 20.9 99 0.1 NNW 30 41 16 22 1007.3 1007.1 0.0
24/10:30am 21.2 19.7 21.0 99 0.1 NNW 30 39 16 21 1007.9 1007.7 0.0
24/10:00am 21.2 20.2 21.2 100 0.0 NNW 28 39 15 21 1008.5 1008.3 0.0
24/09:30am 21.0 19.5 21.0 100 0.0 NNW 30 39 16 21 1008.8 1008.6 0.0
24/09:00am 20.9 19.7 20.9 100 0.0 NNW 28 41 15 22 1008.8 1008.6 4.8
24/08:30am 20.8 20.3 20.8 100 0.0 NNW 24 35 13 19 1008.9 1008.7 4.8
24/08:00am 20.5 18.8 20.5 100 0.0 NNW 30 44 16 24 1009.1 1008.9 4.8
24/07:30am 20.3 19.2 20.3 100 0.0 NNW 26 37 14 20 1009.0 1008.8 4.8
24/07:00am 20.2 17.7 20.2 100 0.0 N 33 43 18 23 1008.8 1008.6 4.8
24/06:30am 19.7 18.3 19.7 100 0.0 N 26 35 14 19 1008.6 1008.4 4.8
24/06:00am 19.7 17.0 19.7 100 0.0 N 33 43 18 23 1008.2 1008.0 4.8
24/05:30am 19.8 16.8 19.8 100 0.0 N 35 50 19 27 1008.2 1008.0 4.8
24/05:00am 20.1 16.1 20.1 100 0.0 N 41 52 22 28 1008.2 1008.0 4.8
24/04:44am 20.1 17.2 20.1 100 0.0 N 35 54 19 29 1007.8 1007.6 4.6
24/04:30am 19.9 16.2 19.9 100 0.0 N 39 50 21 27 1008.2 1008.0 4.4
24/04:16am 20.3 17.5 20.3 100 0.0 N 35 54 19 29 1008.1 1007.9 4.2
24/04:00am 20.4 18.0 20.4 100 0.0 N 33 50 18 27 1008.2 1008.0 2.2
24/03:49am 20.1 17.8 20.1 100 0.0 N 32 50 17 27 1008.3 1008.1 1.6
24/03:30am 19.9 19.8 19.9 100 0.0 N 20 28 11 15 1008.6 1008.4 1.0
24/03:00am 19.6 18.9 19.6 100 0.0 N 22 28 12 15 1009.0 1008.8 1.0
24/02:30am 19.3 18.5 19.3 100 0.0 N 22 24 12 13 1009.3 1009.1 1.0
24/02:00am 19.0 17.7 19.0 100 0.0 NNE 24 28 13 15 1010.1 1009.9 1.0
24/01:30am 19.0 16.2 19.0 100 0.0 NE 32 39 17 21 1010.4 1010.2 1.0
24/01:00am 19.1 16.3 19.1 100 0.0 NNE 32 44 17 24 1010.8 1010.6 1.0
24/12:30am 19.0 17.3 19.0 100 0.0 N 26 37 14 20 1011.3 1011.2 0.8
24/12:00am 19.1 16.6 18.9 99 0.1 N 30 37 16 20 1011.8 1011.7 0.8

Other Formats:

Comma delimited format used in spreadsheet applications
http://www.bom.gov.au/fwo/IDQ60801/IDQ60801.94594.axf

JavaScript Object Notation format (JSON) in row-major order
http://www.bom.gov.au/fwo/IDQ60801/IDQ60801.94594.json